sensor_id;sensor_type;location;lat;lon;timestamp;P1;durP1;ratioP1;P2;durP2;ratioP2
2998;SDS011;1509;51.964;7.628;2023-02-07T00:00:52;19.13;;;12.17;;
2998;SDS011;1509;51.964;7.628;2023-02-07T00:03:18;24.13;;;12.50;;
2998;SDS011;1509;51.964;7.628;2023-02-07T00:05:44;24.90;;;12.67;;
2998;SDS011;1509;51.964;7.628;2023-02-07T00:08:09;19.27;;;11.87;;
2998;SDS011;1509;51.964;7.628;2023-02-07T00:10:35;18.67;;;11.67;;
2998;SDS011;1509;51.964;7.628;2023-02-07T00:13:01;23.57;;;11.87;;
2998;SDS011;1509;51.964;7.628;2023-02-07T00:15:27;25.07;;;12.37;;
2998;SDS011;1509;51.964;7.628;2023-02-07T00:17:53;19.53;;;12.67;;
2998;SDS011;1509;51.964;7.628;2023-02-07T00:20:18;20.20;;;11.80;;
2998;SDS011;1509;51.964;7.628;2023-02-07T00:22:45;15.33;;;11.77;;
2998;SDS011;1509;51.964;7.628;2023-02-07T00:25:11;23.33;;;11.17;;
2998;SDS011;1509;51.964;7.628;2023-02-07T00:27:37;18.80;;;11.20;;
2998;SDS011;1509;51.964;7.628;2023-02-07T00:30:03;19.13;;;12.13;;
2998;SDS011;1509;51.964;7.628;2023-02-07T00:32:30;18.30;;;11.63;;
2998;SDS011;1509;51.964;7.628;2023-02-07T00:34:56;18.50;;;11.60;;
2998;SDS011;1509;51.964;7.628;2023-02-07T00:37:22;20.50;;;10.73;;
2998;SDS011;1509;51.964;7.628;2023-02-07T00:39:48;22.57;;;12.40;;
2998;SDS011;1509;51.964;7.628;2023-02-07T00:42:14;21.17;;;11.93;;
2998;SDS011;1509;51.964;7.628;2023-02-07T00:44:39;19.20;;;9.90;;
2998;SDS011;1509;51.964;7.628;2023-02-07T00:47:05;18.47;;;12.00;;
2998;SDS011;1509;51.964;7.628;2023-02-07T00:49:30;17.60;;;11.00;;
2998;SDS011;1509;51.964;7.628;2023-02-07T00:51:56;19.27;;;11.20;;
2998;SDS011;1509;51.964;7.628;2023-02-07T00:54:22;15.90;;;11.03;;
2998;SDS011;1509;51.964;7.628;2023-02-07T00:56:47;15.83;;;11.37;;
2998;SDS011;1509;51.964;7.628;2023-02-07T00:59:16;20.97;;;11.30;;
2998;SDS011;1509;51.964;7.628;2023-02-07T01:01:41;18.37;;;11.30;;
2998;SDS011;1509;51.964;7.628;2023-02-07T01:04:07;18.17;;;9.77;;
2998;SDS011;1509;51.964;7.628;2023-02-07T01:06:33;20.10;;;10.20;;
2998;SDS011;1509;51.964;7.628;2023-02-07T01:09:01;23.23;;;11.93;;
2998;SDS011;1509;51.964;7.628;2023-02-07T01:11:28;21.33;;;11.90;;
2998;SDS011;1509;51.964;7.628;2023-02-07T01:13:54;15.13;;;10.43;;
2998;SDS011;1509;51.964;7.628;2023-02-07T01:16:23;16.60;;;10.97;;
2998;SDS011;1509;51.964;7.628;2023-02-07T01:18:51;13.67;;;8.87;;
2998;SDS011;1509;51.964;7.628;2023-02-07T01:21:18;20.47;;;10.87;;
2998;SDS011;1509;51.964;7.628;2023-02-07T01:23:45;16.40;;;10.30;;
2998;SDS011;1509;51.964;7.628;2023-02-07T01:26:11;23.83;;;11.27;;
2998;SDS011;1509;51.964;7.628;2023-02-07T01:28:37;16.20;;;10.33;;
2998;SDS011;1509;51.964;7.628;2023-02-07T01:31:09;18.93;;;10.73;;
2998;SDS011;1509;51.964;7.628;2023-02-07T01:33:36;18.63;;;11.30;;
2998;SDS011;1509;51.964;7.628;2023-02-07T01:36:06;18.63;;;10.73;;
2998;SDS011;1509;51.964;7.628;2023-02-07T01:38:33;22.17;;;13.00;;
2998;SDS011;1509;51.964;7.628;2023-02-07T01:40:58;16.97;;;11.60;;
2998;SDS011;1509;51.964;7.628;2023-02-07T01:43:24;22.17;;;11.23;;
2998;SDS011;1509;51.964;7.628;2023-02-07T01:45:50;20.80;;;11.30;;
2998;SDS011;1509;51.964;7.628;2023-02-07T01:48:19;22.30;;;12.33;;
2998;SDS011;1509;51.964;7.628;2023-02-07T01:50:48;19.00;;;11.07;;
2998;SDS011;1509;51.964;7.628;2023-02-07T01:53:16;25.13;;;12.53;;
2998;SDS011;1509;51.964;7.628;2023-02-07T01:55:44;18.00;;;12.47;;
2998;SDS011;1509;51.964;7.628;2023-02-07T01:58:12;21.00;;;11.73;;
2998;SDS011;1509;51.964;7.628;2023-02-07T02:00:38;19.03;;;12.17;;
2998;SDS011;1509;51.964;7.628;2023-02-07T02:03:04;20.00;;;11.43;;
2998;SDS011;1509;51.964;7.628;2023-02-07T02:05:30;21.33;;;12.27;;
2998;SDS011;1509;51.964;7.628;2023-02-07T02:07:57;19.97;;;11.50;;
2998;SDS011;1509;51.964;7.628;2023-02-07T02:10:25;21.63;;;10.90;;
2998;SDS011;1509;51.964;7.628;2023-02-07T02:18:32;19.53;;;11.13;;
2998;SDS011;1509;51.964;7.628;2023-02-07T02:23:50;19.77;;;12.67;;
2998;SDS011;1509;51.964;7.628;2023-02-07T02:40:22;22.70;;;12.77;;
2998;SDS011;1509;51.964;7.628;2023-02-07T02:46:08;16.93;;;12.40;;
2998;SDS011;1509;51.964;7.628;2023-02-07T02:48:42;22.50;;;12.10;;
2998;SDS011;1509;51.964;7.628;2023-02-07T02:51:08;17.60;;;11.53;;
2998;SDS011;1509;51.964;7.628;2023-02-07T02:53:34;22.70;;;12.17;;
2998;SDS011;1509;51.964;7.628;2023-02-07T02:59:00;18.60;;;11.60;;
2998;SDS011;1509;51.964;7.628;2023-02-07T03:13:02;25.53;;;12.10;;
2998;SDS011;1509;51.964;7.628;2023-02-07T03:18:01;23.17;;;12.17;;
2998;SDS011;1509;51.964;7.628;2023-02-07T03:20:44;21.07;;;12.90;;
2998;SDS011;1509;51.964;7.628;2023-02-07T03:23:20;19.20;;;12.50;;
2998;SDS011;1509;51.964;7.628;2023-02-07T03:25:47;25.92;;;14.10;;
2998;SDS011;1509;51.964;7.628;2023-02-07T03:28:15;17.93;;;11.97;;
2998;SDS011;1509;51.964;7.628;2023-02-07T03:30:44;19.90;;;12.50;;
2998;SDS011;1509;51.964;7.628;2023-02-07T03:33:14;22.43;;;12.57;;
2998;SDS011;1509;51.964;7.628;2023-02-07T03:36:02;19.17;;;11.90;;
2998;SDS011;1509;51.964;7.628;2023-02-07T03:38:34;22.03;;;11.53;;
2998;SDS011;1509;51.964;7.628;2023-02-07T03:41:02;19.63;;;11.80;;
2998;SDS011;1509;51.964;7.628;2023-02-07T03:43:34;16.67;;;10.30;;
2998;SDS011;1509;51.964;7.628;2023-02-07T03:46:02;17.97;;;10.90;;
2998;SDS011;1509;51.964;7.628;2023-02-07T03:48:28;20.50;;;11.43;;
2998;SDS011;1509;51.964;7.628;2023-02-07T03:50:54;16.03;;;10.30;;
2998;SDS011;1509;51.964;7.628;2023-02-07T03:53:19;14.83;;;9.70;;
2998;SDS011;1509;51.964;7.628;2023-02-07T03:55:45;21.13;;;9.83;;
2998;SDS011;1509;51.964;7.628;2023-02-07T03:58:11;23.00;;;12.57;;
2998;SDS011;1509;51.964;7.628;2023-02-07T04:00:37;21.00;;;10.90;;
2998;SDS011;1509;51.964;7.628;2023-02-07T04:03:03;15.77;;;10.23;;
2998;SDS011;1509;51.964;7.628;2023-02-07T04:05:29;18.67;;;10.27;;
2998;SDS011;1509;51.964;7.628;2023-02-07T04:07:55;16.90;;;10.60;;
2998;SDS011;1509;51.964;7.628;2023-02-07T04:10:20;16.43;;;10.70;;
2998;SDS011;1509;51.964;7.628;2023-02-07T04:12:46;18.53;;;11.10;;
2998;SDS011;1509;51.964;7.628;2023-02-07T04:15:12;15.43;;;10.53;;
2998;SDS011;1509;51.964;7.628;2023-02-07T04:17:38;19.20;;;11.53;;
2998;SDS011;1509;51.964;7.628;2023-02-07T04:20:04;18.17;;;10.73;;
2998;SDS011;1509;51.964;7.628;2023-02-07T04:22:30;20.80;;;10.30;;
2998;SDS011;1509;51.964;7.628;2023-02-07T04:24:56;15.80;;;10.73;;
2998;SDS011;1509;51.964;7.628;2023-02-07T04:27:22;14.30;;;10.93;;
2998;SDS011;1509;51.964;7.628;2023-02-07T04:29:48;20.27;;;10.13;;
2998;SDS011;1509;51.964;7.628;2023-02-07T04:32:14;21.07;;;11.20;;
2998;SDS011;1509;51.964;7.628;2023-02-07T04:34:43;16.80;;;11.33;;
2998;SDS011;1509;51.964;7.628;2023-02-07T04:37:08;21.63;;;10.20;;
2998;SDS011;1509;51.964;7.628;2023-02-07T04:39:34;13.50;;;9.40;;
2998;SDS011;1509;51.964;7.628;2023-02-07T04:41:59;16.43;;;12.00;;
2998;SDS011;1509;51.964;7.628;2023-02-07T04:44:25;14.70;;;10.50;;
2998;SDS011;1509;51.964;7.628;2023-02-07T04:46:51;20.87;;;11.00;;
2998;SDS011;1509;51.964;7.628;2023-02-07T04:49:16;18.90;;;11.03;;
2998;SDS011;1509;51.964;7.628;2023-02-07T04:51:42;17.80;;;10.30;;
2998;SDS011;1509;51.964;7.628;2023-02-07T04:54:07;17.93;;;12.03;;
2998;SDS011;1509;51.964;7.628;2023-02-07T04:56:33;18.33;;;11.17;;
2998;SDS011;1509;51.964;7.628;2023-02-07T04:59:01;17.80;;;11.53;;
2998;SDS011;1509;51.964;7.628;2023-02-07T05:01:27;15.57;;;9.90;;
2998;SDS011;1509;51.964;7.628;2023-02-07T05:03:53;18.73;;;11.60;;
2998;SDS011;1509;51.964;7.628;2023-02-07T05:06:18;15.90;;;11.00;;
2998;SDS011;1509;51.964;7.628;2023-02-07T05:08:44;18.53;;;11.00;;
2998;SDS011;1509;51.964;7.628;2023-02-07T05:11:09;20.30;;;11.80;;
2998;SDS011;1509;51.964;7.628;2023-02-07T05:13:35;16.33;;;10.53;;
2998;SDS011;1509;51.964;7.628;2023-02-07T05:16:01;17.03;;;11.10;;
2998;SDS011;1509;51.964;7.628;2023-02-07T05:18:28;16.60;;;9.10;;
2998;SDS011;1509;51.964;7.628;2023-02-07T05:20:54;17.73;;;10.70;;
2998;SDS011;1509;51.964;7.628;2023-02-07T05:23:19;20.93;;;10.40;;
2998;SDS011;1509;51.964;7.628;2023-02-07T05:25:46;19.67;;;10.50;;
2998;SDS011;1509;51.964;7.628;2023-02-07T05:28:13;15.47;;;9.30;;
2998;SDS011;1509;51.964;7.628;2023-02-07T05:30:39;19.93;;;12.13;;
2998;SDS011;1509;51.964;7.628;2023-02-07T05:33:04;17.17;;;11.87;;
2998;SDS011;1509;51.964;7.628;2023-02-07T05:35:34;19.20;;;10.70;;
2998;SDS011;1509;51.964;7.628;2023-02-07T05:38:06;17.13;;;11.40;;
2998;SDS011;1509;51.964;7.628;2023-02-07T05:40:33;19.60;;;10.57;;
2998;SDS011;1509;51.964;7.628;2023-02-07T05:43:00;15.80;;;10.10;;
2998;SDS011;1509;51.964;7.628;2023-02-07T05:45:26;18.57;;;10.63;;
2998;SDS011;1509;51.964;7.628;2023-02-07T05:47:51;19.17;;;11.60;;
2998;SDS011;1509;51.964;7.628;2023-02-07T05:50:17;21.17;;;11.60;;
2998;SDS011;1509;51.964;7.628;2023-02-07T05:52:43;18.17;;;11.40;;
2998;SDS011;1509;51.964;7.628;2023-02-07T05:55:09;17.70;;;10.83;;
2998;SDS011;1509;51.964;7.628;2023-02-07T05:57:36;16.67;;;10.73;;
2998;SDS011;1509;51.964;7.628;2023-02-07T06:00:04;23.17;;;10.53;;
2998;SDS011;1509;51.964;7.628;2023-02-07T06:02:30;16.60;;;10.00;;
2998;SDS011;1509;51.964;7.628;2023-02-07T06:04:56;19.80;;;12.07;;
2998;SDS011;1509;51.964;7.628;2023-02-07T06:07:21;11.90;;;9.80;;
2998;SDS011;1509;51.964;7.628;2023-02-07T06:09:47;19.00;;;10.73;;
2998;SDS011;1509;51.964;7.628;2023-02-07T06:12:12;16.17;;;11.80;;
2998;SDS011;1509;51.964;7.628;2023-02-07T06:14:38;17.40;;;11.60;;
2998;SDS011;1509;51.964;7.628;2023-02-07T06:17:04;16.70;;;10.53;;
2998;SDS011;1509;51.964;7.628;2023-02-07T06:19:29;18.80;;;9.80;;
2998;SDS011;1509;51.964;7.628;2023-02-07T06:21:55;16.37;;;10.70;;
2998;SDS011;1509;51.964;7.628;2023-02-07T06:24:20;18.67;;;10.87;;
2998;SDS011;1509;51.964;7.628;2023-02-07T06:26:46;17.97;;;10.20;;
2998;SDS011;1509;51.964;7.628;2023-02-07T06:29:12;18.23;;;11.10;;
2998;SDS011;1509;51.964;7.628;2023-02-07T06:31:38;14.07;;;10.47;;
2998;SDS011;1509;51.964;7.628;2023-02-07T06:34:03;18.97;;;12.77;;
2998;SDS011;1509;51.964;7.628;2023-02-07T06:36:29;19.80;;;11.43;;
2998;SDS011;1509;51.964;7.628;2023-02-07T06:38:54;17.60;;;11.07;;
2998;SDS011;1509;51.964;7.628;2023-02-07T06:41:21;23.37;;;11.13;;
2998;SDS011;1509;51.964;7.628;2023-02-07T06:43:47;16.70;;;11.07;;
2998;SDS011;1509;51.964;7.628;2023-02-07T06:46:12;18.50;;;11.87;;
2998;SDS011;1509;51.964;7.628;2023-02-07T06:48:38;16.97;;;10.37;;
2998;SDS011;1509;51.964;7.628;2023-02-07T06:51:04;19.50;;;10.90;;
2998;SDS011;1509;51.964;7.628;2023-02-07T06:53:30;18.50;;;10.60;;
2998;SDS011;1509;51.964;7.628;2023-02-07T06:55:55;16.50;;;10.97;;
2998;SDS011;1509;51.964;7.628;2023-02-07T06:58:21;16.40;;;10.80;;
2998;SDS011;1509;51.964;7.628;2023-02-07T07:00:47;16.57;;;11.57;;
2998;SDS011;1509;51.964;7.628;2023-02-07T07:03:13;21.33;;;11.03;;
2998;SDS011;1509;51.964;7.628;2023-02-07T07:05:39;17.33;;;11.90;;
2998;SDS011;1509;51.964;7.628;2023-02-07T07:08:06;21.03;;;11.63;;
2998;SDS011;1509;51.964;7.628;2023-02-07T07:10:32;14.13;;;9.73;;
2998;SDS011;1509;51.964;7.628;2023-02-07T07:12:57;15.97;;;9.57;;
2998;SDS011;1509;51.964;7.628;2023-02-07T07:15:23;18.77;;;10.43;;
2998;SDS011;1509;51.964;7.628;2023-02-07T07:17:49;19.23;;;11.60;;
2998;SDS011;1509;51.964;7.628;2023-02-07T07:20:15;13.20;;;8.90;;
2998;SDS011;1509;51.964;7.628;2023-02-07T07:22:41;15.80;;;11.00;;
2998;SDS011;1509;51.964;7.628;2023-02-07T07:25:06;19.67;;;11.67;;
2998;SDS011;1509;51.964;7.628;2023-02-07T07:27:32;17.07;;;10.50;;
2998;SDS011;1509;51.964;7.628;2023-02-07T07:29:58;18.17;;;11.03;;
2998;SDS011;1509;51.964;7.628;2023-02-07T07:32:24;17.57;;;11.13;;
2998;SDS011;1509;51.964;7.628;2023-02-07T07:34:50;15.53;;;11.07;;
2998;SDS011;1509;51.964;7.628;2023-02-07T07:37:15;16.27;;;9.23;;
2998;SDS011;1509;51.964;7.628;2023-02-07T07:39:41;11.77;;;9.63;;
2998;SDS011;1509;51.964;7.628;2023-02-07T07:42:08;15.40;;;10.00;;
2998;SDS011;1509;51.964;7.628;2023-02-07T07:44:34;19.23;;;11.93;;
2998;SDS011;1509;51.964;7.628;2023-02-07T07:46:59;17.87;;;11.77;;
2998;SDS011;1509;51.964;7.628;2023-02-07T07:49:25;13.70;;;10.03;;
2998;SDS011;1509;51.964;7.628;2023-02-07T07:51:51;17.80;;;10.37;;
2998;SDS011;1509;51.964;7.628;2023-02-07T07:54:17;14.77;;;10.17;;
2998;SDS011;1509;51.964;7.628;2023-02-07T07:56:43;16.10;;;10.47;;
2998;SDS011;1509;51.964;7.628;2023-02-07T07:59:08;15.73;;;9.60;;
2998;SDS011;1509;51.964;7.628;2023-02-07T08:01:34;13.93;;;9.70;;
2998;SDS011;1509;51.964;7.628;2023-02-07T08:04:00;12.23;;;9.70;;
2998;SDS011;1509;51.964;7.628;2023-02-07T08:06:27;17.47;;;9.80;;
2998;SDS011;1509;51.964;7.628;2023-02-07T08:08:54;15.57;;;10.13;;
2998;SDS011;1509;51.964;7.628;2023-02-07T08:11:20;13.60;;;9.20;;
2998;SDS011;1509;51.964;7.628;2023-02-07T08:13:47;16.27;;;10.37;;
2998;SDS011;1509;51.964;7.628;2023-02-07T08:16:13;17.73;;;10.30;;
2998;SDS011;1509;51.964;7.628;2023-02-07T08:18:39;12.77;;;8.67;;
2998;SDS011;1509;51.964;7.628;2023-02-07T08:21:05;16.30;;;10.40;;
2998;SDS011;1509;51.964;7.628;2023-02-07T08:23:31;10.87;;;7.77;;
2998;SDS011;1509;51.964;7.628;2023-02-07T08:25:57;11.17;;;8.47;;
2998;SDS011;1509;51.964;7.628;2023-02-07T08:28:23;13.23;;;8.27;;
2998;SDS011;1509;51.964;7.628;2023-02-07T08:30:49;11.50;;;7.93;;
2998;SDS011;1509;51.964;7.628;2023-02-07T08:33:15;10.53;;;7.70;;
2998;SDS011;1509;51.964;7.628;2023-02-07T08:35:41;14.40;;;8.23;;
2998;SDS011;1509;51.964;7.628;2023-02-07T08:38:07;12.37;;;8.50;;
2998;SDS011;1509;51.964;7.628;2023-02-07T08:40:33;12.30;;;8.00;;
2998;SDS011;1509;51.964;7.628;2023-02-07T08:42:58;15.73;;;8.60;;
2998;SDS011;1509;51.964;7.628;2023-02-07T08:45:24;11.10;;;8.40;;
2998;SDS011;1509;51.964;7.628;2023-02-07T08:47:50;12.13;;;9.00;;
2998;SDS011;1509;51.964;7.628;2023-02-07T08:50:16;10.20;;;7.40;;
2998;SDS011;1509;51.964;7.628;2023-02-07T08:52:43;11.97;;;8.30;;
2998;SDS011;1509;51.964;7.628;2023-02-07T08:55:09;9.37;;;7.90;;
2998;SDS011;1509;51.964;7.628;2023-02-07T08:57:38;10.47;;;7.77;;
2998;SDS011;1509;51.964;7.628;2023-02-07T09:00:05;9.63;;;8.00;;
2998;SDS011;1509;51.964;7.628;2023-02-07T09:02:32;14.07;;;8.10;;
2998;SDS011;1509;51.964;7.628;2023-02-07T09:04:57;8.70;;;7.80;;
2998;SDS011;1509;51.964;7.628;2023-02-07T09:07:23;10.80;;;7.30;;
2998;SDS011;1509;51.964;7.628;2023-02-07T09:09:49;11.13;;;7.50;;
2998;SDS011;1509;51.964;7.628;2023-02-07T09:12:14;11.30;;;8.30;;
2998;SDS011;1509;51.964;7.628;2023-02-07T09:14:40;8.60;;;7.70;;
2998;SDS011;1509;51.964;7.628;2023-02-07T09:17:06;10.30;;;7.93;;
2998;SDS011;1509;51.964;7.628;2023-02-07T09:19:32;10.17;;;8.03;;
2998;SDS011;1509;51.964;7.628;2023-02-07T09:21:59;9.83;;;7.90;;
2998;SDS011;1509;51.964;7.628;2023-02-07T09:24:24;10.03;;;8.10;;
2998;SDS011;1509;51.964;7.628;2023-02-07T09:26:50;7.37;;;6.63;;
2998;SDS011;1509;51.964;7.628;2023-02-07T09:29:16;11.90;;;8.40;;
2998;SDS011;1509;51.964;7.628;2023-02-07T09:31:41;9.80;;;7.77;;
2998;SDS011;1509;51.964;7.628;2023-02-07T09:34:08;9.13;;;7.37;;
2998;SDS011;1509;51.964;7.628;2023-02-07T09:36:33;9.23;;;7.10;;
2998;SDS011;1509;51.964;7.628;2023-02-07T09:38:59;9.93;;;6.60;;
2998;SDS011;1509;51.964;7.628;2023-02-07T09:44:27;10.20;;;7.80;;
2998;SDS011;1509;51.964;7.628;2023-02-07T09:47:19;9.60;;;7.30;;
2998;SDS011;1509;51.964;7.628;2023-02-07T09:52:23;9.30;;;8.10;;
2998;SDS011;1509;51.964;7.628;2023-02-07T09:54:54;8.70;;;7.67;;
2998;SDS011;1509;51.964;7.628;2023-02-07T10:02:38;9.00;;;6.93;;
2998;SDS011;1509;51.964;7.628;2023-02-07T10:05:15;8.10;;;6.73;;
2998;SDS011;1509;51.964;7.628;2023-02-07T10:07:44;9.50;;;8.07;;
2998;SDS011;1509;51.964;7.628;2023-02-07T10:10:14;9.83;;;8.70;;
2998;SDS011;1509;51.964;7.628;2023-02-07T10:18:38;7.63;;;6.83;;
2998;SDS011;1509;51.964;7.628;2023-02-07T10:27:11;10.80;;;7.63;;
2998;SDS011;1509;51.964;7.628;2023-02-07T10:32:43;8.77;;;6.33;;
2998;SDS011;1509;51.964;7.628;2023-02-07T10:35:26;9.03;;;6.30;;
2998;SDS011;1509;51.964;7.628;2023-02-07T10:37:59;8.00;;;6.20;;
2998;SDS011;1509;51.964;7.628;2023-02-07T10:40:28;8.17;;;6.70;;
2998;SDS011;1509;51.964;7.628;2023-02-07T10:43:00;8.80;;;5.93;;
2998;SDS011;1509;51.964;7.628;2023-02-07T10:45:38;6.83;;;5.63;;
2998;SDS011;1509;51.964;7.628;2023-02-07T10:48:12;10.07;;;8.13;;
2998;SDS011;1509;51.964;7.628;2023-02-07T10:50:39;7.57;;;6.40;;
2998;SDS011;1509;51.964;7.628;2023-02-07T10:53:04;7.63;;;6.17;;
2998;SDS011;1509;51.964;7.628;2023-02-07T10:58:14;7.70;;;6.33;;
2998;SDS011;1509;51.964;7.628;2023-02-07T11:00:42;7.70;;;5.37;;
2998;SDS011;1509;51.964;7.628;2023-02-07T11:03:13;8.30;;;6.43;;
2998;SDS011;1509;51.964;7.628;2023-02-07T11:08:27;6.93;;;6.17;;
2998;SDS011;1509;51.964;7.628;2023-02-07T11:10:55;6.20;;;5.13;;
2998;SDS011;1509;51.964;7.628;2023-02-07T11:13:26;12.00;;;7.40;;
2998;SDS011;1509;51.964;7.628;2023-02-07T11:15:55;6.70;;;5.10;;
2998;SDS011;1509;51.964;7.628;2023-02-07T11:18:32;6.60;;;5.30;;
2998;SDS011;1509;51.964;7.628;2023-02-07T11:21:06;9.07;;;5.83;;
2998;SDS011;1509;51.964;7.628;2023-02-07T11:23:52;6.27;;;5.67;;
2998;SDS011;1509;51.964;7.628;2023-02-07T11:26:21;6.70;;;5.10;;
2998;SDS011;1509;51.964;7.628;2023-02-07T11:28:51;6.60;;;5.50;;
2998;SDS011;1509;51.964;7.628;2023-02-07T11:31:22;6.50;;;5.50;;
2998;SDS011;1509;51.964;7.628;2023-02-07T11:34:06;8.27;;;6.00;;
2998;SDS011;1509;51.964;7.628;2023-02-07T11:36:53;7.60;;;5.73;;
2998;SDS011;1509;51.964;7.628;2023-02-07T11:39:20;7.40;;;6.10;;
2998;SDS011;1509;51.964;7.628;2023-02-07T11:41:53;7.30;;;5.20;;
2998;SDS011;1509;51.964;7.628;2023-02-07T11:44:24;5.30;;;4.53;;
2998;SDS011;1509;51.964;7.628;2023-02-07T11:46:51;5.90;;;5.13;;
2998;SDS011;1509;51.964;7.628;2023-02-07T11:49:54;6.20;;;5.17;;
2998;SDS011;1509;51.964;7.628;2023-02-07T11:52:14;5.87;;;4.80;;
2998;SDS011;1509;51.964;7.628;2023-02-07T11:54:41;6.07;;;5.00;;
2998;SDS011;1509;51.964;7.628;2023-02-07T11:57:15;8.83;;;7.10;;
2998;SDS011;1509;51.964;7.628;2023-02-07T12:02:49;10.50;;;6.20;;
2998;SDS011;1509;51.964;7.628;2023-02-07T12:05:26;5.13;;;4.63;;
2998;SDS011;1509;51.964;7.628;2023-02-07T12:08:17;6.70;;;5.23;;
2998;SDS011;1509;51.964;7.628;2023-02-07T12:10:52;7.63;;;5.53;;
2998;SDS011;1509;51.964;7.628;2023-02-07T12:13:39;7.03;;;5.53;;
2998;SDS011;1509;51.964;7.628;2023-02-07T12:16:12;6.60;;;4.80;;
2998;SDS011;1509;51.964;7.628;2023-02-07T12:27:15;6.63;;;5.90;;
2998;SDS011;1509;51.964;7.628;2023-02-07T12:30:00;7.73;;;6.50;;
2998;SDS011;1509;51.964;7.628;2023-02-07T12:35:32;6.67;;;6.00;;
2998;SDS011;1509;51.964;7.628;2023-02-07T12:38:16;8.90;;;5.80;;
2998;SDS011;1509;51.964;7.628;2023-02-07T12:40:52;8.97;;;5.73;;
2998;SDS011;1509;51.964;7.628;2023-02-07T12:43:27;8.53;;;6.30;;
2998;SDS011;1509;51.964;7.628;2023-02-07T12:51:32;9.43;;;5.70;;
2998;SDS011;1509;51.964;7.628;2023-02-07T12:54:22;6.07;;;5.00;;
2998;SDS011;1509;51.964;7.628;2023-02-07T12:56:59;5.43;;;4.40;;
2998;SDS011;1509;51.964;7.628;2023-02-07T13:13:20;10.67;;;5.30;;
2998;SDS011;1509;51.964;7.628;2023-02-07T13:16:13;7.10;;;4.70;;
2998;SDS011;1509;51.964;7.628;2023-02-07T13:21:26;8.07;;;5.97;;
2998;SDS011;1509;51.964;7.628;2023-02-07T13:24:24;7.03;;;5.17;;
2998;SDS011;1509;51.964;7.628;2023-02-07T13:26:53;8.60;;;6.20;;
2998;SDS011;1509;51.964;7.628;2023-02-07T13:29:22;5.87;;;4.97;;
2998;SDS011;1509;51.964;7.628;2023-02-07T13:31:56;5.60;;;4.70;;
2998;SDS011;1509;51.964;7.628;2023-02-07T13:34:26;7.00;;;5.07;;
2998;SDS011;1509;51.964;7.628;2023-02-07T13:36:55;5.10;;;4.50;;
2998;SDS011;1509;51.964;7.628;2023-02-07T13:42:21;7.87;;;5.07;;
2998;SDS011;1509;51.964;7.628;2023-02-07T13:50:18;6.43;;;4.70;;
2998;SDS011;1509;51.964;7.628;2023-02-07T13:56:08;7.10;;;5.73;;
2998;SDS011;1509;51.964;7.628;2023-02-07T13:58:54;7.43;;;5.73;;
2998;SDS011;1509;51.964;7.628;2023-02-07T14:01:52;5.40;;;4.40;;
2998;SDS011;1509;51.964;7.628;2023-02-07T14:04:23;7.60;;;5.33;;
2998;SDS011;1509;51.964;7.628;2023-02-07T14:12:17;6.83;;;4.97;;
2998;SDS011;1509;51.964;7.628;2023-02-07T14:14:43;9.67;;;5.00;;
2998;SDS011;1509;51.964;7.628;2023-02-07T14:17:11;7.50;;;5.47;;
2998;SDS011;1509;51.964;7.628;2023-02-07T14:24:47;9.03;;;5.77;;
2998;SDS011;1509;51.964;7.628;2023-02-07T14:32:41;7.93;;;5.67;;
2998;SDS011;1509;51.964;7.628;2023-02-07T14:35:30;7.67;;;6.87;;
2998;SDS011;1509;51.964;7.628;2023-02-07T14:45:39;10.13;;;6.17;;
2998;SDS011;1509;51.964;7.628;2023-02-07T14:50:58;6.60;;;5.90;;
2998;SDS011;1509;51.964;7.628;2023-02-07T14:53:23;10.07;;;6.33;;
2998;SDS011;1509;51.964;7.628;2023-02-07T14:55:51;8.80;;;6.27;;
2998;SDS011;1509;51.964;7.628;2023-02-07T14:58:28;12.30;;;8.33;;
2998;SDS011;1509;51.964;7.628;2023-02-07T15:01:00;7.57;;;5.80;;
2998;SDS011;1509;51.964;7.628;2023-02-07T15:03:29;10.80;;;6.30;;
2998;SDS011;1509;51.964;7.628;2023-02-07T15:05:59;9.63;;;5.57;;
2998;SDS011;1509;51.964;7.628;2023-02-07T15:08:27;9.00;;;6.60;;
2998;SDS011;1509;51.964;7.628;2023-02-07T15:11:01;8.77;;;5.47;;
2998;SDS011;1509;51.964;7.628;2023-02-07T15:18:28;14.70;;;6.87;;
2998;SDS011;1509;51.964;7.628;2023-02-07T15:21:00;9.63;;;6.40;;
2998;SDS011;1509;51.964;7.628;2023-02-07T15:23:26;7.13;;;5.67;;
2998;SDS011;1509;51.964;7.628;2023-02-07T15:25:53;9.17;;;6.03;;
2998;SDS011;1509;51.964;7.628;2023-02-07T15:28:26;10.07;;;6.27;;
2998;SDS011;1509;51.964;7.628;2023-02-07T15:33:27;11.03;;;7.57;;
2998;SDS011;1509;51.964;7.628;2023-02-07T15:36:00;10.47;;;6.90;;
2998;SDS011;1509;51.964;7.628;2023-02-07T15:38:27;12.60;;;5.93;;
2998;SDS011;1509;51.964;7.628;2023-02-07T15:40:54;8.70;;;6.00;;
2998;SDS011;1509;51.964;7.628;2023-02-07T15:43:27;9.17;;;6.40;;
2998;SDS011;1509;51.964;7.628;2023-02-07T15:46:06;8.73;;;5.70;;
2998;SDS011;1509;51.964;7.628;2023-02-07T15:48:46;12.10;;;6.33;;
2998;SDS011;1509;51.964;7.628;2023-02-07T15:51:19;13.97;;;6.27;;
2998;SDS011;1509;51.964;7.628;2023-02-07T15:53:49;13.30;;;8.23;;
2998;SDS011;1509;51.964;7.628;2023-02-07T15:56:19;7.80;;;6.13;;
2998;SDS011;1509;51.964;7.628;2023-02-07T15:58:45;10.03;;;6.83;;
2998;SDS011;1509;51.964;7.628;2023-02-07T16:01:30;9.90;;;6.73;;
2998;SDS011;1509;51.964;7.628;2023-02-07T16:03:57;10.67;;;7.93;;
2998;SDS011;1509;51.964;7.628;2023-02-07T16:06:27;12.20;;;7.50;;
2998;SDS011;1509;51.964;7.628;2023-02-07T16:08:54;8.60;;;6.20;;
2998;SDS011;1509;51.964;7.628;2023-02-07T16:16:34;10.23;;;6.67;;
2998;SDS011;1509;51.964;7.628;2023-02-07T16:19:13;13.80;;;7.20;;
2998;SDS011;1509;51.964;7.628;2023-02-07T16:21:41;9.77;;;6.57;;
2998;SDS011;1509;51.964;7.628;2023-02-07T16:24:10;10.20;;;6.23;;
2998;SDS011;1509;51.964;7.628;2023-02-07T16:26:36;8.47;;;6.00;;
2998;SDS011;1509;51.964;7.628;2023-02-07T16:29:05;11.20;;;6.20;;
2998;SDS011;1509;51.964;7.628;2023-02-07T16:31:32;10.20;;;6.30;;
2998;SDS011;1509;51.964;7.628;2023-02-07T16:33:58;8.03;;;6.10;;
2998;SDS011;1509;51.964;7.628;2023-02-07T16:36:24;9.67;;;5.47;;
2998;SDS011;1509;51.964;7.628;2023-02-07T16:38:50;9.83;;;6.30;;
2998;SDS011;1509;51.964;7.628;2023-02-07T16:43:57;7.17;;;5.60;;
2998;SDS011;1509;51.964;7.628;2023-02-07T16:46:24;11.07;;;6.70;;
2998;SDS011;1509;51.964;7.628;2023-02-07T16:48:50;9.20;;;6.40;;
2998;SDS011;1509;51.964;7.628;2023-02-07T16:51:16;10.43;;;7.40;;
2998;SDS011;1509;51.964;7.628;2023-02-07T16:53:43;9.20;;;6.87;;
2998;SDS011;1509;51.964;7.628;2023-02-07T16:56:13;10.80;;;6.40;;
2998;SDS011;1509;51.964;7.628;2023-02-07T16:58:44;12.67;;;7.43;;
2998;SDS011;1509;51.964;7.628;2023-02-07T17:01:17;7.67;;;6.60;;
2998;SDS011;1509;51.964;7.628;2023-02-07T17:03:43;11.73;;;6.70;;
2998;SDS011;1509;51.964;7.628;2023-02-07T17:06:16;11.57;;;8.17;;
2998;SDS011;1509;51.964;7.628;2023-02-07T17:08:43;15.30;;;8.40;;
2998;SDS011;1509;51.964;7.628;2023-02-07T17:11:17;12.60;;;7.00;;
2998;SDS011;1509;51.964;7.628;2023-02-07T17:13:48;9.07;;;7.53;;
2998;SDS011;1509;51.964;7.628;2023-02-07T17:16:21;9.70;;;6.33;;
2998;SDS011;1509;51.964;7.628;2023-02-07T17:18:49;9.83;;;6.53;;
2998;SDS011;1509;51.964;7.628;2023-02-07T17:21:14;10.40;;;7.00;;
2998;SDS011;1509;51.964;7.628;2023-02-07T17:23:43;10.83;;;7.73;;
2998;SDS011;1509;51.964;7.628;2023-02-07T17:28:51;13.23;;;8.27;;
2998;SDS011;1509;51.964;7.628;2023-02-07T17:31:18;11.80;;;8.87;;
2998;SDS011;1509;51.964;7.628;2023-02-07T17:33:44;13.73;;;8.80;;
2998;SDS011;1509;51.964;7.628;2023-02-07T17:36:13;13.30;;;8.53;;
2998;SDS011;1509;51.964;7.628;2023-02-07T17:38:40;14.17;;;8.60;;
2998;SDS011;1509;51.964;7.628;2023-02-07T17:41:15;23.10;;;11.90;;
2998;SDS011;1509;51.964;7.628;2023-02-07T17:43:45;14.57;;;9.80;;
2998;SDS011;1509;51.964;7.628;2023-02-07T17:46:21;14.20;;;8.70;;
2998;SDS011;1509;51.964;7.628;2023-02-07T17:48:49;15.47;;;11.07;;
2998;SDS011;1509;51.964;7.628;2023-02-07T17:51:16;16.70;;;10.00;;
2998;SDS011;1509;51.964;7.628;2023-02-07T17:53:43;13.93;;;9.80;;
2998;SDS011;1509;51.964;7.628;2023-02-07T17:56:19;15.10;;;9.43;;